createdAt,value
2017-09-25T00:00:37.134Z,99.50
2017-09-25T00:03:05.460Z,99.80
2017-09-25T00:05:33.823Z,99.90
2017-09-25T00:08:02.128Z,99.90
2017-09-25T00:10:30.422Z,99.90
2017-09-25T00:12:58.783Z,99.90
2017-09-25T00:15:27.069Z,99.90
2017-09-25T00:17:55.398Z,99.90
2017-09-25T00:20:24.458Z,99.90
2017-09-25T00:22:52.822Z,99.90
2017-09-25T00:25:21.223Z,99.90
2017-09-25T00:27:49.526Z,99.90
2017-09-25T00:30:17.869Z,99.90
2017-09-25T00:32:46.231Z,99.90
2017-09-25T00:35:15.317Z,99.90
2017-09-25T00:37:43.648Z,99.90
2017-09-25T00:40:12.717Z,99.90
2017-09-25T00:42:41.093Z,99.90
2017-09-25T00:45:09.408Z,99.90
2017-09-25T00:47:37.736Z,99.90
2017-09-25T00:50:06.037Z,99.90
2017-09-25T00:52:52.195Z,99.90
2017-09-25T00:55:28.846Z,99.90
2017-09-25T00:57:57.238Z,99.90
2017-09-25T01:00:43.161Z,99.90
2017-09-25T01:16:48.811Z,99.90
2017-09-25T01:19:17.934Z,99.90
2017-09-25T01:21:46.993Z,99.90
2017-09-25T01:24:15.304Z,99.90
2017-09-25T01:26:43.639Z,99.90
2017-09-25T01:29:11.959Z,99.90
2017-09-25T01:31:41.025Z,99.90
2017-09-25T01:34:09.355Z,99.90
2017-09-25T01:36:37.681Z,99.90
2017-09-25T01:39:06.769Z,99.90
2017-09-25T01:41:35.094Z,99.90
2017-09-25T01:44:03.420Z,99.90
2017-09-25T01:46:51.617Z,99.90
2017-09-25T01:49:20.844Z,99.90
2017-09-25T01:51:49.175Z,99.90
2017-09-25T01:54:17.534Z,99.90
2017-09-25T01:56:46.586Z,99.90
2017-09-25T01:59:14.899Z,99.90
2017-09-25T02:01:43.211Z,99.90
2017-09-25T02:04:11.499Z,99.90
2017-09-25T02:06:39.828Z,99.90
2017-09-25T02:09:08.148Z,99.90
2017-09-25T02:11:36.453Z,99.90
2017-09-25T02:14:04.783Z,99.90
2017-09-25T02:16:33.870Z,99.90
2017-09-25T02:19:02.197Z,99.90
2017-09-25T02:21:31.259Z,99.90
2017-09-25T02:23:59.591Z,99.90
2017-09-25T02:26:27.879Z,99.90
2017-09-25T02:28:56.184Z,99.90
2017-09-25T02:31:24.512Z,99.90
2017-09-25T02:33:53.631Z,99.90
2017-09-25T02:36:21.944Z,99.90
2017-09-25T02:38:51.399Z,99.90
2017-09-25T02:41:19.747Z,99.90
2017-09-25T02:43:48.081Z,99.90
2017-09-25T02:46:17.135Z,99.90
2017-09-25T02:48:45.454Z,99.90
2017-09-25T02:51:13.760Z,99.90
2017-09-25T02:53:42.057Z,99.90
2017-09-25T02:56:10.381Z,99.90
2017-09-25T02:58:38.677Z,99.90
2017-09-25T03:01:06.998Z,99.90
2017-09-25T03:03:35.372Z,99.90
2017-09-25T03:06:03.701Z,99.90
2017-09-25T03:08:32.790Z,99.90
2017-09-25T03:11:01.129Z,99.90
2017-09-25T03:13:29.427Z,99.90
2017-09-25T03:15:57.747Z,99.90
2017-09-25T03:18:26.078Z,99.90
2017-09-25T03:20:54.395Z,99.90
2017-09-25T03:23:22.751Z,99.90
2017-09-25T03:25:51.834Z,99.90
2017-09-25T03:28:21.029Z,99.90
2017-09-25T03:30:49.352Z,99.90
2017-09-25T03:33:17.704Z,99.90
2017-09-25T03:35:46.023Z,99.90
2017-09-25T03:38:14.323Z,99.90
2017-09-25T03:40:42.668Z,99.90
2017-09-25T03:43:11.003Z,99.90
2017-09-25T03:45:40.076Z,99.90
2017-09-25T03:48:08.379Z,99.90
2017-09-25T03:50:36.711Z,99.90
2017-09-25T03:53:05.006Z,99.90
2017-09-25T03:55:33.328Z,99.90
2017-09-25T03:58:02.416Z,99.90
2017-09-25T04:00:30.752Z,99.90
2017-09-25T04:02:59.802Z,99.90
2017-09-25T04:05:28.104Z,99.90
2017-09-25T04:07:56.422Z,99.90
2017-09-25T04:10:24.723Z,99.90
2017-09-25T04:12:53.668Z,99.90
2017-09-25T04:15:22.014Z,99.90
2017-09-25T04:17:50.376Z,99.90
2017-09-25T04:20:19.455Z,99.90
2017-09-25T04:22:47.750Z,99.90
2017-09-25T04:25:16.071Z,99.90
2017-09-25T04:27:44.364Z,99.90
2017-09-25T04:30:12.681Z,99.90
2017-09-25T04:32:40.985Z,99.90
2017-09-25T04:35:09.537Z,99.90
2017-09-25T04:37:37.859Z,99.90
2017-09-25T04:40:06.159Z,99.90
2017-09-25T04:42:34.462Z,99.90
2017-09-25T04:45:02.757Z,99.90
2017-09-25T04:47:31.070Z,99.90
2017-09-25T04:49:59.379Z,99.90
2017-09-25T04:52:27.690Z,99.90
2017-09-25T04:54:55.990Z,99.90
2017-09-25T04:57:24.311Z,99.90
2017-09-25T04:59:52.643Z,99.90
2017-09-25T05:02:21.701Z,99.90
2017-09-25T05:04:50.021Z,99.90
2017-09-25T05:07:18.343Z,99.90
2017-09-25T05:09:46.671Z,99.90
2017-09-25T05:12:14.972Z,99.90
2017-09-25T05:14:43.275Z,99.90
2017-09-25T05:17:13.041Z,99.90
2017-09-25T05:19:41.351Z,99.90
2017-09-25T05:22:10.057Z,99.90
2017-09-25T05:24:38.387Z,99.90
2017-09-25T05:27:06.697Z,99.90
2017-09-25T05:29:35.047Z,99.90
2017-09-25T05:32:03.430Z,99.90
2017-09-25T05:34:31.725Z,99.90
2017-09-25T05:37:00.065Z,99.90
2017-09-25T05:39:29.183Z,99.90
2017-09-25T05:41:58.300Z,99.90
2017-09-25T05:44:26.695Z,99.90
2017-09-25T05:47:01.415Z,99.90
2017-09-25T05:49:29.743Z,99.90
2017-09-25T05:51:58.614Z,99.90
2017-09-25T05:54:26.942Z,99.90
2017-09-25T05:56:55.249Z,99.90
2017-09-25T05:59:23.609Z,99.90
2017-09-25T06:01:51.944Z,99.90
2017-09-25T06:04:20.241Z,99.90
2017-09-25T06:06:48.581Z,99.90
2017-09-25T06:09:17.639Z,99.90
2017-09-25T06:11:45.944Z,99.90
2017-09-25T06:14:14.280Z,99.90
2017-09-25T06:16:43.479Z,99.90
2017-09-25T06:19:11.774Z,99.90
2017-09-25T06:21:40.112Z,99.90
2017-09-25T06:24:08.444Z,99.90
2017-09-25T06:26:37.508Z,95.50
2017-09-25T06:29:05.841Z,95.50
2017-09-25T06:31:34.139Z,94.50
2017-09-25T06:34:02.457Z,93.40
2017-09-25T06:36:30.825Z,93.70
2017-09-25T06:39:01.280Z,93.90
2017-09-25T06:41:29.605Z,93.70
2017-09-25T06:43:57.966Z,94.30
2017-09-25T06:46:28.619Z,95.50
2017-09-25T06:48:57.009Z,94.50
2017-09-25T06:51:26.197Z,93.80
2017-09-25T06:53:55.471Z,93.80
2017-09-25T06:56:23.764Z,95.00
2017-09-25T06:58:53.156Z,99.40
2017-09-25T07:01:22.186Z,99.50
2017-09-25T07:03:50.543Z,99.90
2017-09-25T07:06:20.288Z,99.90
2017-09-25T07:08:48.628Z,99.90
2017-09-25T07:11:16.939Z,99.90
2017-09-25T07:13:46.508Z,98.50
2017-09-25T07:16:14.844Z,98.50
2017-09-25T07:18:43.429Z,97.70
2017-09-25T07:21:11.911Z,97.00
2017-09-25T07:23:40.275Z,96.40
2017-09-25T07:26:09.392Z,93.60
2017-09-25T07:28:37.683Z,93.40
2017-09-25T07:31:06.015Z,93.00
2017-09-25T07:33:35.751Z,89.00
2017-09-25T07:36:04.042Z,88.80
2017-09-25T07:38:32.333Z,87.90
2017-09-25T07:41:00.675Z,86.60
2017-09-25T07:43:28.971Z,83.90
2017-09-25T07:45:58.040Z,79.90
2017-09-25T07:48:26.347Z,79.90
2017-09-25T07:50:54.913Z,79.00
2017-09-25T07:53:23.289Z,76.20
2017-09-25T07:55:52.354Z,73.90
2017-09-25T07:58:20.642Z,73.80
2017-09-25T08:00:48.975Z,73.80
2017-09-25T08:03:17.317Z,75.40
2017-09-25T08:05:45.678Z,76.40
2017-09-25T08:08:13.983Z,77.80
2017-09-25T08:10:42.320Z,78.70
2017-09-25T08:13:11.460Z,83.40
2017-09-25T08:15:39.790Z,83.40
2017-09-25T08:18:08.074Z,83.80
2017-09-25T08:20:38.990Z,83.90
2017-09-25T08:23:07.348Z,83.70
2017-09-25T08:25:36.836Z,85.20
2017-09-25T08:28:06.850Z,84.80
2017-09-25T08:30:35.277Z,84.90
2017-09-25T08:33:03.931Z,84.80
2017-09-25T08:35:32.298Z,82.40
2017-09-25T08:38:01.361Z,81.60
2017-09-25T08:40:29.667Z,81.70
2017-09-25T08:42:57.947Z,82.60
2017-09-25T08:45:26.260Z,82.60
2017-09-25T08:47:54.587Z,83.70
2017-09-25T08:50:22.867Z,84.80
2017-09-25T08:52:51.160Z,84.30
2017-09-25T08:55:19.928Z,85.40
2017-09-25T08:57:48.247Z,86.00
2017-09-25T09:00:17.339Z,84.90
2017-09-25T09:02:45.662Z,84.90
2017-09-25T09:05:14.763Z,84.70
2017-09-25T09:07:43.058Z,85.30
2017-09-25T09:10:11.384Z,83.00
2017-09-25T09:12:40.443Z,83.90
2017-09-25T09:15:08.735Z,83.90
2017-09-25T09:17:38.191Z,83.10
2017-09-25T09:20:06.522Z,83.30
2017-09-25T09:22:34.810Z,83.90
2017-09-25T09:25:03.144Z,85.30
2017-09-25T09:27:32.227Z,80.90
2017-09-25T09:30:00.561Z,80.90
2017-09-25T09:32:28.860Z,80.40
2017-09-25T09:34:57.404Z,77.50
2017-09-25T09:37:26.502Z,80.20
2017-09-25T09:39:55.579Z,80.90
2017-09-25T09:42:23.881Z,80.80
2017-09-25T09:44:52.259Z,78.60
2017-09-25T09:47:20.551Z,78.10
2017-09-25T09:49:48.852Z,79.10
2017-09-25T09:52:17.176Z,77.30
2017-09-25T09:54:45.474Z,77.50
2017-09-25T09:57:13.844Z,76.90
2017-09-25T09:59:42.137Z,77.40
2017-09-25T10:02:10.493Z,76.10
2017-09-25T10:04:38.819Z,78.60
2017-09-25T10:07:07.116Z,80.30
2017-09-25T10:09:36.859Z,79.80
2017-09-25T10:12:05.163Z,78.40
2017-09-25T10:14:33.508Z,75.90
2017-09-25T10:17:01.081Z,78.60
2017-09-25T10:19:29.375Z,80.50
2017-09-25T10:21:57.722Z,77.80
2017-09-25T10:24:26.784Z,74.80
2017-09-25T10:26:55.172Z,74.80
2017-09-25T10:29:23.495Z,75.20
2017-09-25T10:31:51.842Z,73.40
2017-09-25T10:34:20.918Z,74.10
2017-09-25T10:36:49.260Z,74.10
2017-09-25T10:39:18.331Z,72.30
2017-09-25T10:41:46.658Z,72.30
2017-09-25T10:44:14.938Z,72.00
2017-09-25T10:46:43.275Z,70.30
2017-09-25T10:49:12.339Z,72.10
2017-09-25T10:51:40.625Z,72.00
2017-09-25T10:54:08.959Z,72.10
2017-09-25T10:56:37.244Z,71.10
2017-09-25T10:59:05.554Z,70.40
2017-09-25T11:01:33.837Z,71.80
2017-09-25T11:04:02.167Z,71.80
2017-09-25T11:06:30.476Z,72.30
2017-09-25T11:08:58.795Z,70.10
2017-09-25T11:11:27.927Z,69.60
2017-09-25T11:13:56.236Z,69.50
2017-09-25T11:16:24.568Z,67.70
2017-09-25T11:18:52.913Z,68.90
2017-09-25T11:21:21.232Z,68.20
2017-09-25T11:23:49.534Z,68.90
2017-09-25T11:26:17.835Z,68.10
2017-09-25T11:28:46.135Z,67.20
2017-09-25T11:31:14.465Z,67.00
2017-09-25T11:33:42.806Z,66.80
2017-09-25T11:36:11.130Z,66.20
2017-09-25T11:38:39.428Z,66.90
2017-09-25T11:41:07.789Z,67.60
2017-09-25T11:43:37.138Z,66.80
2017-09-25T11:46:05.478Z,67.50
2017-09-25T11:48:33.811Z,67.60
2017-09-25T11:51:02.872Z,67.30
2017-09-25T11:53:31.195Z,66.40
2017-09-25T11:55:59.519Z,66.00
2017-09-25T11:58:27.812Z,67.60
2017-09-25T12:00:56.182Z,68.10
2017-09-25T12:03:24.506Z,66.70
2017-09-25T12:05:52.861Z,64.80
2017-09-25T12:08:21.929Z,65.10
2017-09-25T12:10:50.906Z,65.10
2017-09-25T12:13:19.199Z,64.90
2017-09-25T12:15:48.274Z,62.00
2017-09-25T12:18:16.841Z,62.00
2017-09-25T12:20:45.139Z,63.20
2017-09-25T12:23:13.458Z,62.60
2017-09-25T12:25:41.776Z,61.90
2017-09-25T12:28:10.170Z,59.70
2017-09-25T12:30:38.520Z,57.70
2017-09-25T12:33:08.036Z,58.40
2017-09-25T12:35:36.388Z,56.90
2017-09-25T12:38:04.697Z,55.50
2017-09-25T12:40:33.010Z,55.20
2017-09-25T12:43:01.357Z,56.00
2017-09-25T12:45:29.663Z,55.60
2017-09-25T12:47:58.000Z,57.40
2017-09-25T12:50:26.323Z,56.30
2017-09-25T12:52:56.256Z,56.70
2017-09-25T12:55:25.666Z,56.30
2017-09-25T12:57:54.102Z,55.90
2017-09-25T13:00:22.448Z,57.70
2017-09-25T13:02:50.793Z,57.60
2017-09-25T13:05:19.193Z,57.70
2017-09-25T13:07:47.765Z,58.40
2017-09-25T13:10:16.145Z,59.10
2017-09-25T13:12:44.661Z,60.00
2017-09-25T13:15:14.940Z,60.80
2017-09-25T13:19:20.383Z,60.70
2017-09-25T13:21:52.412Z,60.10
2017-09-25T13:24:21.445Z,61.60
2017-09-25T13:26:50.531Z,61.60
2017-09-25T13:29:18.875Z,61.60
2017-09-25T13:31:47.177Z,62.50
2017-09-25T13:34:15.526Z,61.90
2017-09-25T13:36:43.861Z,63.00
2017-09-25T13:39:12.201Z,62.30
2017-09-25T13:41:40.591Z,61.70
2017-09-25T13:44:08.901Z,60.50
2017-09-25T13:46:37.212Z,59.00
2017-09-25T13:49:05.672Z,59.60
2017-09-25T13:51:34.017Z,58.80
2017-09-25T13:54:02.338Z,57.40
2017-09-25T13:56:30.661Z,57.70
2017-09-25T14:04:06.143Z,59.50
2017-09-25T14:06:34.495Z,58.00
2017-09-25T14:09:03.605Z,60.80
2017-09-25T14:11:32.711Z,60.90
2017-09-25T14:14:01.041Z,60.80
2017-09-25T14:16:29.357Z,59.90
2017-09-25T14:18:57.656Z,60.40
2017-09-25T14:21:26.748Z,59.90
2017-09-25T14:23:55.050Z,59.90
2017-09-25T14:26:24.318Z,59.70
2017-09-25T14:28:53.429Z,61.40
2017-09-25T14:31:22.570Z,63.00
2017-09-25T14:33:50.932Z,63.00
2017-09-25T14:36:19.246Z,62.60
2017-09-25T14:38:47.595Z,62.90
2017-09-25T14:41:15.899Z,63.70
2017-09-25T14:43:44.234Z,64.60
2017-09-25T14:46:12.561Z,63.80
2017-09-25T14:48:40.860Z,64.70
2017-09-25T14:51:09.183Z,64.00
2017-09-25T14:53:37.566Z,63.10
2017-09-25T14:56:05.899Z,65.20
2017-09-25T14:58:34.270Z,63.50
2017-09-25T15:01:02.577Z,63.30
2017-09-25T15:03:30.909Z,64.70
2017-09-25T15:05:59.232Z,64.70
2017-09-25T15:08:27.540Z,65.40
2017-09-25T15:10:55.951Z,65.10
2017-09-25T15:13:24.303Z,65.30
2017-09-25T15:15:52.618Z,66.00
2017-09-25T15:18:20.958Z,66.70
2017-09-25T15:20:49.315Z,66.40
2017-09-25T15:23:17.630Z,66.90
2017-09-25T15:25:45.972Z,65.80
2017-09-25T15:28:14.278Z,66.00
2017-09-25T15:30:42.605Z,66.80
2017-09-25T15:33:10.937Z,67.30
2017-09-25T15:35:40.019Z,66.70
2017-09-25T15:38:08.457Z,66.70
2017-09-25T15:40:36.780Z,66.60
2017-09-25T15:43:05.120Z,66.20
2017-09-25T15:45:33.418Z,67.00
2017-09-25T15:48:01.758Z,67.10
2017-09-25T15:50:30.076Z,65.40
2017-09-25T15:52:59.248Z,64.40
2017-09-25T15:55:27.568Z,64.40
2017-09-25T15:57:55.871Z,64.20
2017-09-25T16:00:24.214Z,64.20
2017-09-25T16:02:52.533Z,66.60
2017-09-25T16:05:20.833Z,66.50
2017-09-25T16:07:49.198Z,67.20
2017-09-25T16:10:17.493Z,67.80
2017-09-25T16:12:45.812Z,67.70
2017-09-25T16:15:14.156Z,67.60
2017-09-25T16:17:42.489Z,67.20
2017-09-25T16:20:10.834Z,66.40
2017-09-25T16:22:39.153Z,67.50
2017-09-25T16:25:07.459Z,67.50
2017-09-25T16:27:35.796Z,68.00
2017-09-25T16:30:04.864Z,69.50
2017-09-25T16:32:33.223Z,69.40
2017-09-25T16:35:01.546Z,70.00
2017-09-25T16:37:30.621Z,70.30
2017-09-25T16:39:58.950Z,70.30
2017-09-25T16:42:27.256Z,70.80
2017-09-25T16:44:55.597Z,70.60
2017-09-25T16:47:23.934Z,70.50
2017-09-25T16:49:52.259Z,71.00
2017-09-25T16:52:20.562Z,69.60
2017-09-25T16:54:48.885Z,69.90
2017-09-25T16:57:17.965Z,69.70
2017-09-25T16:59:46.273Z,69.60
2017-09-25T17:02:14.787Z,69.80
2017-09-25T17:04:43.093Z,69.00
2017-09-25T17:07:11.497Z,69.90
2017-09-25T17:09:39.833Z,70.70
2017-09-25T17:12:08.264Z,70.20
2017-09-25T17:14:37.344Z,70.80
2017-09-25T17:17:05.703Z,70.70
2017-09-25T17:19:34.797Z,70.80
2017-09-25T17:22:03.131Z,70.90
2017-09-25T17:24:31.438Z,71.60
2017-09-25T17:26:59.921Z,72.00
2017-09-25T17:29:28.236Z,72.40
2017-09-25T17:31:56.580Z,72.00
2017-09-25T17:34:24.888Z,72.30
2017-09-25T17:36:53.208Z,73.10
2017-09-25T17:39:21.510Z,73.90
2017-09-25T17:41:50.021Z,74.20
2017-09-25T17:44:18.355Z,73.80
2017-09-25T17:46:46.700Z,73.80
2017-09-25T17:49:15.792Z,75.00
2017-09-25T17:51:44.287Z,74.90
2017-09-25T17:54:12.591Z,75.40
2017-09-25T17:56:41.119Z,75.80
2017-09-25T17:59:09.462Z,78.00
2017-09-25T18:01:38.017Z,78.40
2017-09-25T18:04:06.317Z,79.80
2017-09-25T18:06:34.910Z,80.00
2017-09-25T18:09:03.344Z,80.30
2017-09-25T18:11:32.003Z,80.70
2017-09-25T18:14:00.323Z,80.90
2017-09-25T18:16:28.619Z,81.70
2017-09-25T18:18:56.949Z,80.80
2017-09-25T18:21:25.506Z,80.70
2017-09-25T18:23:54.620Z,81.10
2017-09-25T18:26:23.938Z,81.30
2017-09-25T18:28:52.270Z,82.10
2017-09-25T18:31:20.610Z,80.90
2017-09-25T18:33:48.969Z,80.90
2017-09-25T18:36:18.026Z,81.20
2017-09-25T18:38:46.329Z,81.20
2017-09-25T18:41:14.658Z,81.40
2017-09-25T18:43:42.998Z,81.60
2017-09-25T18:46:12.162Z,81.70
2017-09-25T18:48:40.508Z,81.60
2017-09-25T18:51:08.836Z,81.90
2017-09-25T18:53:37.159Z,82.60
2017-09-25T18:56:06.277Z,82.80
2017-09-25T18:58:35.328Z,83.40
2017-09-25T19:01:03.644Z,83.40
2017-09-25T19:03:31.981Z,84.30
2017-09-25T19:06:01.080Z,84.20
2017-09-25T19:08:29.412Z,84.20
2017-09-25T19:10:57.714Z,84.40
2017-09-25T19:13:26.045Z,84.40
2017-09-25T19:15:54.474Z,84.50
2017-09-25T19:18:22.764Z,85.10
2017-09-25T19:20:51.123Z,85.00
2017-09-25T19:23:19.572Z,85.40
2017-09-25T19:25:48.030Z,85.70
2017-09-25T19:28:16.352Z,85.80
2017-09-25T19:30:44.672Z,86.00
2017-09-25T19:33:13.017Z,86.40
2017-09-25T19:35:42.081Z,87.30
2017-09-25T19:38:10.376Z,87.30
2017-09-25T19:40:38.716Z,87.50
2017-09-25T19:43:07.016Z,88.10
2017-09-25T19:45:35.367Z,87.90
2017-09-25T19:48:07.596Z,88.10
2017-09-25T19:50:35.973Z,88.00
2017-09-25T19:53:04.837Z,88.40
2017-09-25T19:55:35.905Z,88.50
2017-09-25T19:58:20.307Z,88.10
2017-09-25T20:00:49.420Z,88.90
2017-09-25T20:03:18.493Z,89.00
2017-09-25T20:05:46.840Z,88.90
2017-09-25T20:08:15.168Z,89.70
2017-09-25T20:10:44.610Z,89.10
2017-09-25T20:13:12.942Z,88.90
2017-09-25T20:15:44.197Z,90.20
2017-09-25T20:18:16.192Z,90.00
2017-09-25T20:20:44.547Z,90.10
2017-09-25T20:23:12.845Z,90.20
2017-09-25T20:25:41.957Z,90.20
2017-09-25T20:28:11.153Z,90.60
2017-09-25T20:30:40.659Z,90.50
2017-09-25T20:33:09.096Z,91.10
2017-09-25T20:35:38.461Z,91.40
2017-09-25T20:38:06.868Z,91.60
2017-09-25T20:40:35.243Z,92.00
2017-09-25T20:43:08.946Z,91.40
2017-09-25T20:45:37.509Z,92.20
2017-09-25T20:48:05.891Z,92.00
2017-09-25T20:50:35.028Z,91.50
2017-09-25T20:53:04.206Z,92.00
2017-09-25T20:55:32.565Z,92.00
2017-09-25T20:58:00.876Z,92.00
2017-09-25T21:00:29.207Z,92.20
2017-09-25T21:02:57.577Z,92.00
2017-09-25T21:05:26.113Z,91.90
2017-09-25T21:07:54.614Z,92.00
2017-09-25T21:10:23.059Z,91.50
2017-09-25T21:12:52.161Z,94.70
2017-09-25T21:15:20.593Z,94.70
2017-09-25T21:17:50.177Z,95.60
2017-09-25T21:20:18.557Z,95.00
2017-09-25T21:22:46.903Z,94.60
2017-09-25T21:25:15.218Z,94.70
2017-09-25T21:27:44.323Z,93.60
2017-09-25T21:30:13.628Z,93.60
2017-09-25T21:32:41.969Z,94.00
2017-09-25T21:35:10.310Z,93.50
2017-09-25T21:37:38.616Z,93.40
2017-09-25T21:40:07.023Z,93.90
2017-09-25T21:42:35.423Z,93.40
2017-09-25T21:45:03.738Z,93.60
2017-09-25T21:47:32.230Z,93.60
2017-09-25T21:50:00.544Z,93.00
2017-09-25T21:52:28.882Z,93.60
2017-09-25T21:54:57.224Z,93.60
2017-09-25T21:57:26.207Z,93.80
2017-09-25T21:59:54.566Z,93.20
2017-09-25T22:02:22.916Z,94.20
2017-09-25T22:04:52.196Z,94.50
2017-09-25T22:07:22.476Z,94.50
2017-09-25T22:09:50.890Z,94.10
2017-09-25T22:12:19.312Z,94.10
2017-09-25T22:14:48.912Z,95.00
2017-09-25T22:17:17.228Z,95.00
2017-09-25T22:19:45.580Z,94.70
2017-09-25T22:22:13.957Z,96.80
2017-09-25T22:24:42.290Z,95.30
2017-09-25T22:27:10.618Z,95.30
2017-09-25T22:29:39.045Z,95.80
2017-09-25T22:32:08.155Z,96.30
2017-09-25T22:34:36.523Z,96.30
2017-09-25T22:37:04.873Z,96.90
2017-09-25T22:39:34.271Z,97.20
2017-09-25T22:42:02.610Z,97.80
2017-09-25T22:44:31.884Z,97.50
2017-09-25T22:47:00.313Z,97.20
2017-09-25T22:49:28.647Z,97.70
2017-09-25T22:52:07.876Z,97.80
2017-09-25T22:54:36.219Z,97.80
2017-09-25T22:57:05.321Z,98.90
2017-09-25T22:59:34.427Z,98.10
2017-09-25T23:02:02.742Z,98.10
2017-09-25T23:07:35.719Z,98.00
2017-09-25T23:10:04.079Z,98.10
2017-09-25T23:12:33.240Z,98.90
2017-09-25T23:15:03.509Z,98.70
2017-09-25T23:17:31.858Z,99.00
2017-09-25T23:20:00.160Z,98.80
2017-09-25T23:22:29.352Z,99.20
2017-09-25T23:24:57.653Z,99.20
2017-09-25T23:27:25.991Z,99.50
2017-09-25T23:29:56.403Z,99.70
2017-09-25T23:32:24.733Z,99.60
2017-09-25T23:34:53.860Z,99.90
2017-09-25T23:37:22.220Z,99.90
2017-09-25T23:39:50.516Z,99.60
2017-09-25T23:42:18.867Z,99.90
2017-09-25T23:44:48.027Z,99.90
2017-09-25T23:47:16.323Z,99.90
2017-09-25T23:49:44.666Z,99.90
2017-09-25T23:52:13.025Z,99.90
2017-09-25T23:54:43.438Z,99.90
2017-09-25T23:57:11.769Z,99.90
2017-09-25T23:59:40.913Z,99.90
